University, Nevada
Current Conditions -  °F | °C
As of 9:55 AM on Sunday 25 Jan 2015 (Local Time) from KRNO Reporting Station
Scattered Clouds Scattered Clouds  
Wind Chill: 40°   Ceiling: Unl
Heat Index: 40°   Visibility: 10mi
Dew Point: 21°   Wind: 0mph
Humidity: 47%   Direction: NA
Pressure: 30.43"   Gusts: NA
Location:  39.5468°N, 119.815°W
Report Text: KRNO 251755Z 00000KT 10SM FEW170 SCT200 SCT250 04/M06 A3043 RMK AO2 SLP308 T00441061 10044 21028 58002
Loading
Personal Weather Stations






























Interactive Weather Map New forecast layout! Learn more

10-Day Weather Forecast

Advertisements
Track Severe Weather on mobile